sensor_id;sensor_type;location;lat;lon;timestamp;temperature;humidity
7204;DHT22;3643;52.460;13.322;2023-07-20T00:01:48;15.50;99.90
7204;DHT22;3643;52.460;13.322;2023-07-20T00:04:16;15.40;99.90
7204;DHT22;3643;52.460;13.322;2023-07-20T00:06:45;15.40;99.90
7204;DHT22;3643;52.460;13.322;2023-07-20T00:09:13;15.40;99.90
7204;DHT22;3643;52.460;13.322;2023-07-20T00:11:48;15.40;99.90
7204;DHT22;3643;52.460;13.322;2023-07-20T00:14:17;15.40;99.90
7204;DHT22;3643;52.460;13.322;2023-07-20T00:16:46;15.40;99.90
7204;DHT22;3643;52.460;13.322;2023-07-20T00:19:16;15.30;99.90
7204;DHT22;3643;52.460;13.322;2023-07-20T00:21:44;15.30;99.90
7204;DHT22;3643;52.460;13.322;2023-07-20T00:24:13;15.30;99.90
7204;DHT22;3643;52.460;13.322;2023-07-20T00:26:43;15.30;99.90
7204;DHT22;3643;52.460;13.322;2023-07-20T00:29:11;15.30;99.90
7204;DHT22;3643;52.460;13.322;2023-07-20T00:31:40;15.30;99.90
7204;DHT22;3643;52.460;13.322;2023-07-20T00:34:09;15.30;99.90
7204;DHT22;3643;52.460;13.322;2023-07-20T00:36:37;15.30;99.90
7204;DHT22;3643;52.460;13.322;2023-07-20T00:39:06;15.30;99.90
7204;DHT22;3643;52.460;13.322;2023-07-20T00:41:34;15.20;99.90
7204;DHT22;3643;52.460;13.322;2023-07-20T00:44:04;15.20;99.90
7204;DHT22;3643;52.460;13.322;2023-07-20T00:46:33;15.20;99.90
7204;DHT22;3643;52.460;13.322;2023-07-20T00:49:02;15.20;99.90
7204;DHT22;3643;52.460;13.322;2023-07-20T00:51:30;15.20;99.90
7204;DHT22;3643;52.460;13.322;2023-07-20T00:53:59;15.20;99.90
7204;DHT22;3643;52.460;13.322;2023-07-20T00:56:27;15.10;99.90
7204;DHT22;3643;52.460;13.322;2023-07-20T00:58:56;15.10;99.90
7204;DHT22;3643;52.460;13.322;2023-07-20T01:01:26;15.10;99.90
7204;DHT22;3643;52.460;13.322;2023-07-20T01:03:54;15.10;99.90
7204;DHT22;3643;52.460;13.322;2023-07-20T01:06:28;15.00;99.90
7204;DHT22;3643;52.460;13.322;2023-07-20T01:09:05;15.00;99.90
7204;DHT22;3643;52.460;13.322;2023-07-20T01:11:54;15.00;99.90
7204;DHT22;3643;52.460;13.322;2023-07-20T01:14:26;14.90;99.90
7204;DHT22;3643;52.460;13.322;2023-07-20T01:16:56;15.00;99.90
7204;DHT22;3643;52.460;13.322;2023-07-20T01:19:24;15.00;99.90
7204;DHT22;3643;52.460;13.322;2023-07-20T01:21:59;15.10;99.90
7204;DHT22;3643;52.460;13.322;2023-07-20T01:24:51;15.10;99.90
7204;DHT22;3643;52.460;13.322;2023-07-20T01:27:36;15.20;99.90
7204;DHT22;3643;52.460;13.322;2023-07-20T01:30:18;15.20;99.90
7204;DHT22;3643;52.460;13.322;2023-07-20T01:32:55;15.20;99.90
7204;DHT22;3643;52.460;13.322;2023-07-20T01:35:28;15.20;99.90
7204;DHT22;3643;52.460;13.322;2023-07-20T01:37:57;15.20;99.90
7204;DHT22;3643;52.460;13.322;2023-07-20T01:40:27;15.10;99.90
7204;DHT22;3643;52.460;13.322;2023-07-20T01:42:56;15.10;99.90
7204;DHT22;3643;52.460;13.322;2023-07-20T01:45:24;15.10;99.90
7204;DHT22;3643;52.460;13.322;2023-07-20T01:47:55;15.10;99.90
7204;DHT22;3643;52.460;13.322;2023-07-20T01:50:23;15.10;99.90
7204;DHT22;3643;52.460;13.322;2023-07-20T01:52:51;15.00;99.90
7204;DHT22;3643;52.460;13.322;2023-07-20T01:55:20;15.00;99.90
7204;DHT22;3643;52.460;13.322;2023-07-20T01:57:48;15.00;99.90
7204;DHT22;3643;52.460;13.322;2023-07-20T02:00:17;15.00;99.90
7204;DHT22;3643;52.460;13.322;2023-07-20T02:02:48;15.00;99.90
7204;DHT22;3643;52.460;13.322;2023-07-20T02:05:18;15.00;99.90
7204;DHT22;3643;52.460;13.322;2023-07-20T02:07:46;14.90;99.90
7204;DHT22;3643;52.460;13.322;2023-07-20T02:10:14;14.90;99.90
7204;DHT22;3643;52.460;13.322;2023-07-20T02:12:43;14.80;99.90
7204;DHT22;3643;52.460;13.322;2023-07-20T02:15:11;14.80;99.90
7204;DHT22;3643;52.460;13.322;2023-07-20T02:17:41;14.80;99.90
7204;DHT22;3643;52.460;13.322;2023-07-20T02:20:11;14.70;99.90
7204;DHT22;3643;52.460;13.322;2023-07-20T02:22:41;14.70;99.90
7204;DHT22;3643;52.460;13.322;2023-07-20T02:25:09;14.70;99.90
7204;DHT22;3643;52.460;13.322;2023-07-20T02:27:38;14.60;99.90
7204;DHT22;3643;52.460;13.322;2023-07-20T02:30:07;14.60;99.90
7204;DHT22;3643;52.460;13.322;2023-07-20T02:32:37;14.50;99.90
7204;DHT22;3643;52.460;13.322;2023-07-20T02:35:07;14.50;99.90
7204;DHT22;3643;52.460;13.322;2023-07-20T02:37:35;14.50;99.90
7204;DHT22;3643;52.460;13.322;2023-07-20T02:40:06;14.50;99.90
7204;DHT22;3643;52.460;13.322;2023-07-20T02:42:35;14.50;99.90
7204;DHT22;3643;52.460;13.322;2023-07-20T02:45:05;14.50;99.90
7204;DHT22;3643;52.460;13.322;2023-07-20T02:47:33;14.50;99.90
7204;DHT22;3643;52.460;13.322;2023-07-20T02:50:03;14.60;99.90
7204;DHT22;3643;52.460;13.322;2023-07-20T02:52:31;14.60;99.90
7204;DHT22;3643;52.460;13.322;2023-07-20T02:55:00;14.70;99.90
7204;DHT22;3643;52.460;13.322;2023-07-20T02:57:30;14.70;99.90
7204;DHT22;3643;52.460;13.322;2023-07-20T02:59:58;14.70;99.90
7204;DHT22;3643;52.460;13.322;2023-07-20T03:02:29;14.70;99.90
7204;DHT22;3643;52.460;13.322;2023-07-20T03:04:58;14.70;99.90
7204;DHT22;3643;52.460;13.322;2023-07-20T03:07:28;14.70;99.90
7204;DHT22;3643;52.460;13.322;2023-07-20T03:09:57;14.80;99.90
7204;DHT22;3643;52.460;13.322;2023-07-20T03:12:25;14.80;99.90
7204;DHT22;3643;52.460;13.322;2023-07-20T03:14:56;14.80;99.90
7204;DHT22;3643;52.460;13.322;2023-07-20T03:17:25;14.80;99.90
7204;DHT22;3643;52.460;13.322;2023-07-20T03:19:53;14.80;99.90
7204;DHT22;3643;52.460;13.322;2023-07-20T03:22:22;14.80;99.90
7204;DHT22;3643;52.460;13.322;2023-07-20T03:24:51;14.80;99.90
7204;DHT22;3643;52.460;13.322;2023-07-20T03:27:19;14.80;99.90
7204;DHT22;3643;52.460;13.322;2023-07-20T03:29:48;13.80;99.90
7204;DHT22;3643;52.460;13.322;2023-07-20T03:32:17;14.80;99.90
7204;DHT22;3643;52.460;13.322;2023-07-20T03:34:46;14.80;99.90
7204;DHT22;3643;52.460;13.322;2023-07-20T03:37:15;14.90;99.90
7204;DHT22;3643;52.460;13.322;2023-07-20T03:39:43;14.90;99.90
7204;DHT22;3643;52.460;13.322;2023-07-20T03:42:12;14.80;99.90
7204;DHT22;3643;52.460;13.322;2023-07-20T03:44:40;14.90;99.90
7204;DHT22;3643;52.460;13.322;2023-07-20T03:47:08;14.90;99.90
7204;DHT22;3643;52.460;13.322;2023-07-20T03:49:38;14.90;99.90
7204;DHT22;3643;52.460;13.322;2023-07-20T03:52:07;14.90;99.90
7204;DHT22;3643;52.460;13.322;2023-07-20T03:54:35;15.00;99.90
7204;DHT22;3643;52.460;13.322;2023-07-20T03:57:04;14.90;99.90
7204;DHT22;3643;52.460;13.322;2023-07-20T03:59:32;15.00;99.90
7204;DHT22;3643;52.460;13.322;2023-07-20T04:02:01;14.90;99.90
7204;DHT22;3643;52.460;13.322;2023-07-20T04:04:29;15.00;99.90
7204;DHT22;3643;52.460;13.322;2023-07-20T04:06:59;15.00;99.90
7204;DHT22;3643;52.460;13.322;2023-07-20T04:09:27;15.00;99.90
7204;DHT22;3643;52.460;13.322;2023-07-20T04:11:55;15.10;99.90
7204;DHT22;3643;52.460;13.322;2023-07-20T04:14:23;15.10;99.90
7204;DHT22;3643;52.460;13.322;2023-07-20T04:16:51;15.10;99.90
7204;DHT22;3643;52.460;13.322;2023-07-20T04:19:20;15.20;99.90
7204;DHT22;3643;52.460;13.322;2023-07-20T04:21:48;15.20;99.90
7204;DHT22;3643;52.460;13.322;2023-07-20T04:24:18;15.20;99.90
7204;DHT22;3643;52.460;13.322;2023-07-20T04:26:46;15.20;99.90
7204;DHT22;3643;52.460;13.322;2023-07-20T04:29:14;15.20;99.90
7204;DHT22;3643;52.460;13.322;2023-07-20T04:31:42;15.20;99.90
7204;DHT22;3643;52.460;13.322;2023-07-20T04:34:10;15.20;99.90
7204;DHT22;3643;52.460;13.322;2023-07-20T04:36:39;15.10;99.90
7204;DHT22;3643;52.460;13.322;2023-07-20T04:39:07;15.20;99.90
7204;DHT22;3643;52.460;13.322;2023-07-20T04:41:53;15.20;99.90
7204;DHT22;3643;52.460;13.322;2023-07-20T04:44:21;15.20;99.90
7204;DHT22;3643;52.460;13.322;2023-07-20T04:46:49;15.30;99.90
7204;DHT22;3643;52.460;13.322;2023-07-20T04:49:18;15.40;99.90
7204;DHT22;3643;52.460;13.322;2023-07-20T04:51:46;15.40;99.90
7204;DHT22;3643;52.460;13.322;2023-07-20T04:54:14;15.50;99.90
7204;DHT22;3643;52.460;13.322;2023-07-20T04:56:44;15.50;99.90
7204;DHT22;3643;52.460;13.322;2023-07-20T04:59:15;15.70;99.90
7204;DHT22;3643;52.460;13.322;2023-07-20T05:01:43;15.90;99.90
7204;DHT22;3643;52.460;13.322;2023-07-20T05:04:11;15.90;99.90
7204;DHT22;3643;52.460;13.322;2023-07-20T05:06:42;15.70;99.90
7204;DHT22;3643;52.460;13.322;2023-07-20T05:09:10;15.80;99.90
7204;DHT22;3643;52.460;13.322;2023-07-20T05:11:38;15.90;99.90
7204;DHT22;3643;52.460;13.322;2023-07-20T05:14:06;15.90;99.90
7204;DHT22;3643;52.460;13.322;2023-07-20T05:16:36;15.80;99.90
7204;DHT22;3643;52.460;13.322;2023-07-20T05:19:05;15.90;99.90
7204;DHT22;3643;52.460;13.322;2023-07-20T05:21:33;15.90;99.90
7204;DHT22;3643;52.460;13.322;2023-07-20T05:24:01;15.90;99.90
7204;DHT22;3643;52.460;13.322;2023-07-20T05:26:29;16.00;99.90
7204;DHT22;3643;52.460;13.322;2023-07-20T05:28:57;16.20;99.90
7204;DHT22;3643;52.460;13.322;2023-07-20T05:31:25;16.30;99.90
7204;DHT22;3643;52.460;13.322;2023-07-20T05:33:55;16.60;99.90
7204;DHT22;3643;52.460;13.322;2023-07-20T05:36:24;16.60;99.90
7204;DHT22;3643;52.460;13.322;2023-07-20T05:38:52;16.80;99.90
7204;DHT22;3643;52.460;13.322;2023-07-20T05:41:20;17.50;99.90
7204;DHT22;3643;52.460;13.322;2023-07-20T05:43:49;17.60;99.90
7204;DHT22;3643;52.460;13.322;2023-07-20T05:46:17;16.40;99.90
7204;DHT22;3643;52.460;13.322;2023-07-20T05:48:46;17.70;99.90
7204;DHT22;3643;52.460;13.322;2023-07-20T05:51:15;17.50;99.90
7204;DHT22;3643;52.460;13.322;2023-07-20T05:53:43;17.10;99.90
7204;DHT22;3643;52.460;13.322;2023-07-20T05:56:13;16.80;99.90
7204;DHT22;3643;52.460;13.322;2023-07-20T05:58:41;16.50;99.90
7204;DHT22;3643;52.460;13.322;2023-07-20T06:01:09;16.40;99.90
7204;DHT22;3643;52.460;13.322;2023-07-20T06:03:38;16.30;99.90
7204;DHT22;3643;52.460;13.322;2023-07-20T06:06:06;16.40;99.90
7204;DHT22;3643;52.460;13.322;2023-07-20T06:08:40;16.40;99.90
7204;DHT22;3643;52.460;13.322;2023-07-20T06:11:08;16.30;99.90
7204;DHT22;3643;52.460;13.322;2023-07-20T06:13:37;16.30;99.90
7204;DHT22;3643;52.460;13.322;2023-07-20T06:16:05;16.30;99.90
7204;DHT22;3643;52.460;13.322;2023-07-20T06:18:33;16.40;99.90
7204;DHT22;3643;52.460;13.322;2023-07-20T06:21:02;16.50;99.90
7204;DHT22;3643;52.460;13.322;2023-07-20T06:23:30;16.60;99.90
7204;DHT22;3643;52.460;13.322;2023-07-20T06:25:59;16.80;99.90
7204;DHT22;3643;52.460;13.322;2023-07-20T06:28:28;16.70;99.90
7204;DHT22;3643;52.460;13.322;2023-07-20T06:30:59;16.70;99.90
7204;DHT22;3643;52.460;13.322;2023-07-20T06:33:28;16.90;99.90
7204;DHT22;3643;52.460;13.322;2023-07-20T06:35:57;17.20;99.90
7204;DHT22;3643;52.460;13.322;2023-07-20T06:38:25;17.40;99.90
7204;DHT22;3643;52.460;13.322;2023-07-20T06:40:56;17.10;99.90
7204;DHT22;3643;52.460;13.322;2023-07-20T06:43:46;17.70;99.90
7204;DHT22;3643;52.460;13.322;2023-07-20T06:46:15;18.70;99.90
7204;DHT22;3643;52.460;13.322;2023-07-20T06:48:43;18.10;99.90
7204;DHT22;3643;52.460;13.322;2023-07-20T06:51:15;18.60;99.90
7204;DHT22;3643;52.460;13.322;2023-07-20T06:53:43;19.60;99.90
7204;DHT22;3643;52.460;13.322;2023-07-20T06:56:11;20.90;99.90
7204;DHT22;3643;52.460;13.322;2023-07-20T06:58:40;22.60;99.90
7204;DHT22;3643;52.460;13.322;2023-07-20T07:01:09;23.30;99.90
7204;DHT22;3643;52.460;13.322;2023-07-20T07:03:38;23.90;99.90
7204;DHT22;3643;52.460;13.322;2023-07-20T07:06:06;24.70;99.90
7204;DHT22;3643;52.460;13.322;2023-07-20T07:08:34;25.30;99.90
7204;DHT22;3643;52.460;13.322;2023-07-20T07:11:03;25.60;99.90
7204;DHT22;3643;52.460;13.322;2023-07-20T07:13:32;26.70;99.90
7204;DHT22;3643;52.460;13.322;2023-07-20T07:16:01;27.90;99.90
7204;DHT22;3643;52.460;13.322;2023-07-20T07:18:36;27.50;99.90
7204;DHT22;3643;52.460;13.322;2023-07-20T07:21:07;28.10;99.90
7204;DHT22;3643;52.460;13.322;2023-07-20T07:23:35;28.90;98.00
7204;DHT22;3643;52.460;13.322;2023-07-20T07:26:03;28.90;96.90
7204;DHT22;3643;52.460;13.322;2023-07-20T07:28:31;28.80;97.30
7204;DHT22;3643;52.460;13.322;2023-07-20T07:31:00;28.90;96.10
7204;DHT22;3643;52.460;13.322;2023-07-20T07:33:28;28.90;96.70
7204;DHT22;3643;52.460;13.322;2023-07-20T07:35:58;27.40;96.60
7204;DHT22;3643;52.460;13.322;2023-07-20T07:38:28;26.80;96.90
7204;DHT22;3643;52.460;13.322;2023-07-20T07:41:17;26.50;98.10
7204;DHT22;3643;52.460;13.322;2023-07-20T07:43:45;26.50;97.40
7204;DHT22;3643;52.460;13.322;2023-07-20T07:46:13;27.60;97.10
7204;DHT22;3643;52.460;13.322;2023-07-20T07:48:42;28.00;97.00
7204;DHT22;3643;52.460;13.322;2023-07-20T07:51:12;27.90;96.20
7204;DHT22;3643;52.460;13.322;2023-07-20T07:53:42;27.00;96.70
7204;DHT22;3643;52.460;13.322;2023-07-20T07:56:11;26.60;97.00
7204;DHT22;3643;52.460;13.322;2023-07-20T07:58:39;26.00;97.10
7204;DHT22;3643;52.460;13.322;2023-07-20T08:01:07;26.00;97.90
7204;DHT22;3643;52.460;13.322;2023-07-20T08:03:36;26.00;97.40
7204;DHT22;3643;52.460;13.322;2023-07-20T08:06:04;25.70;97.40
7204;DHT22;3643;52.460;13.322;2023-07-20T08:08:34;24.70;97.50
7204;DHT22;3643;52.460;13.322;2023-07-20T08:11:03;25.00;98.20
7204;DHT22;3643;52.460;13.322;2023-07-20T08:13:34;24.60;98.80
7204;DHT22;3643;52.460;13.322;2023-07-20T08:16:03;23.90;99.00
7204;DHT22;3643;52.460;13.322;2023-07-20T08:18:31;23.30;99.90
7204;DHT22;3643;52.460;13.322;2023-07-20T08:21:00;22.90;99.90
7204;DHT22;3643;52.460;13.322;2023-07-20T08:23:28;22.90;99.90
7204;DHT22;3643;52.460;13.322;2023-07-20T08:25:58;23.10;99.90
7204;DHT22;3643;52.460;13.322;2023-07-20T08:28:28;22.80;99.90
7204;DHT22;3643;52.460;13.322;2023-07-20T08:30:56;22.70;99.90
7204;DHT22;3643;52.460;13.322;2023-07-20T08:33:25;22.70;99.90
7204;DHT22;3643;52.460;13.322;2023-07-20T08:35:56;22.50;99.90
7204;DHT22;3643;52.460;13.322;2023-07-20T08:38:24;21.90;99.90
7204;DHT22;3643;52.460;13.322;2023-07-20T08:40:53;21.50;99.90
7204;DHT22;3643;52.460;13.322;2023-07-20T08:43:24;21.60;99.90
7204;DHT22;3643;52.460;13.322;2023-07-20T08:45:54;21.90;99.90
7204;DHT22;3643;52.460;13.322;2023-07-20T08:48:24;22.60;99.90
7204;DHT22;3643;52.460;13.322;2023-07-20T08:50:52;23.40;99.90
7204;DHT22;3643;52.460;13.322;2023-07-20T08:53:21;24.80;98.70
7204;DHT22;3643;52.460;13.322;2023-07-20T08:55:51;25.80;97.00
7204;DHT22;3643;52.460;13.322;2023-07-20T08:58:20;26.50;96.20
7204;DHT22;3643;52.460;13.322;2023-07-20T09:00:50;26.10;96.30
7204;DHT22;3643;52.460;13.322;2023-07-20T09:03:19;25.30;96.30
7204;DHT22;3643;52.460;13.322;2023-07-20T09:05:48;24.80;96.90
7204;DHT22;3643;52.460;13.322;2023-07-20T09:08:17;24.50;97.70
7204;DHT22;3643;52.460;13.322;2023-07-20T09:10:45;23.90;98.10
7204;DHT22;3643;52.460;13.322;2023-07-20T09:13:14;23.70;98.50
7204;DHT22;3643;52.460;13.322;2023-07-20T09:15:47;23.80;98.20
7204;DHT22;3643;52.460;13.322;2023-07-20T09:18:25;23.20;99.10
7204;DHT22;3643;52.460;13.322;2023-07-20T09:20:54;23.00;99.10
7204;DHT22;3643;52.460;13.322;2023-07-20T09:23:30;23.10;98.90
7204;DHT22;3643;52.460;13.322;2023-07-20T09:26:00;23.50;99.10
7204;DHT22;3643;52.460;13.322;2023-07-20T09:28:28;23.50;99.20
7204;DHT22;3643;52.460;13.322;2023-07-20T09:30:57;23.80;99.00
7204;DHT22;3643;52.460;13.322;2023-07-20T09:33:27;23.40;99.60
7204;DHT22;3643;52.460;13.322;2023-07-20T09:36:02;23.50;99.00
7204;DHT22;3643;52.460;13.322;2023-07-20T09:38:51;23.70;98.20
7204;DHT22;3643;52.460;13.322;2023-07-20T09:41:22;24.00;97.90
7204;DHT22;3643;52.460;13.322;2023-07-20T09:43:54;24.10;97.60
7204;DHT22;3643;52.460;13.322;2023-07-20T09:46:22;22.90;98.20
7204;DHT22;3643;52.460;13.322;2023-07-20T09:48:55;22.80;99.00
7204;DHT22;3643;52.460;13.322;2023-07-20T09:51:27;22.50;99.00
7204;DHT22;3643;52.460;13.322;2023-07-20T09:53:56;21.50;99.60
7204;DHT22;3643;52.460;13.322;2023-07-20T09:56:25;22.30;99.70
7204;DHT22;3643;52.460;13.322;2023-07-20T09:58:56;22.10;99.30
7204;DHT22;3643;52.460;13.322;2023-07-20T10:01:26;22.00;99.60
7204;DHT22;3643;52.460;13.322;2023-07-20T10:03:58;21.80;99.60
7204;DHT22;3643;52.460;13.322;2023-07-20T10:06:29;21.30;99.90
7204;DHT22;3643;52.460;13.322;2023-07-20T10:09:01;20.70;99.90
7204;DHT22;3643;52.460;13.322;2023-07-20T10:11:32;20.60;99.90
7204;DHT22;3643;52.460;13.322;2023-07-20T10:14:04;20.70;99.90
7204;DHT22;3643;52.460;13.322;2023-07-20T10:16:36;20.80;99.90
7204;DHT22;3643;52.460;13.322;2023-07-20T10:19:16;20.80;99.90
7204;DHT22;3643;52.460;13.322;2023-07-20T10:21:48;21.40;99.90
7204;DHT22;3643;52.460;13.322;2023-07-20T10:24:25;21.90;99.90
7204;DHT22;3643;52.460;13.322;2023-07-20T10:26:55;22.30;99.90
7204;DHT22;3643;52.460;13.322;2023-07-20T10:29:24;22.60;99.90
7204;DHT22;3643;52.460;13.322;2023-07-20T10:31:56;22.60;99.90
7204;DHT22;3643;52.460;13.322;2023-07-20T10:34:27;22.40;99.90
7204;DHT22;3643;52.460;13.322;2023-07-20T10:36:56;22.20;99.90
7204;DHT22;3643;52.460;13.322;2023-07-20T10:39:25;21.80;99.90
7204;DHT22;3643;52.460;13.322;2023-07-20T10:42:02;21.60;99.90
7204;DHT22;3643;52.460;13.322;2023-07-20T10:44:31;21.40;99.90
7204;DHT22;3643;52.460;13.322;2023-07-20T10:47:00;21.50;99.90
7204;DHT22;3643;52.460;13.322;2023-07-20T10:49:33;21.70;99.90
7204;DHT22;3643;52.460;13.322;2023-07-20T10:52:05;21.70;99.90
7204;DHT22;3643;52.460;13.322;2023-07-20T10:54:46;21.70;99.90
7204;DHT22;3643;52.460;13.322;2023-07-20T10:57:24;21.80;99.90
7204;DHT22;3643;52.460;13.322;2023-07-20T11:00:07;21.80;99.90
7204;DHT22;3643;52.460;13.322;2023-07-20T11:02:44;21.90;99.90
7204;DHT22;3643;52.460;13.322;2023-07-20T11:05:34;22.00;99.90
7204;DHT22;3643;52.460;13.322;2023-07-20T11:08:04;22.00;99.90
7204;DHT22;3643;52.460;13.322;2023-07-20T11:10:33;21.90;99.90
7204;DHT22;3643;52.460;13.322;2023-07-20T11:13:21;21.80;99.90
7204;DHT22;3643;52.460;13.322;2023-07-20T11:16:04;21.70;99.90
7204;DHT22;3643;52.460;13.322;2023-07-20T11:18:34;21.20;99.90
7204;DHT22;3643;52.460;13.322;2023-07-20T11:21:11;21.10;99.90
7204;DHT22;3643;52.460;13.322;2023-07-20T11:23:41;21.00;99.90
7204;DHT22;3643;52.460;13.322;2023-07-20T11:26:12;20.90;99.90
7204;DHT22;3643;52.460;13.322;2023-07-20T11:28:42;20.90;99.90
7204;DHT22;3643;52.460;13.322;2023-07-20T11:31:14;20.80;99.90
7204;DHT22;3643;52.460;13.322;2023-07-20T11:33:43;20.80;99.90
7204;DHT22;3643;52.460;13.322;2023-07-20T11:36:13;20.70;99.90
7204;DHT22;3643;52.460;13.322;2023-07-20T11:38:46;20.80;99.90
7204;DHT22;3643;52.460;13.322;2023-07-20T11:41:15;20.70;99.90
7204;DHT22;3643;52.460;13.322;2023-07-20T11:43:45;20.80;99.90
7204;DHT22;3643;52.460;13.322;2023-07-20T11:46:14;20.80;99.90
7204;DHT22;3643;52.460;13.322;2023-07-20T11:48:43;21.00;99.90
7204;DHT22;3643;52.460;13.322;2023-07-20T11:51:15;21.00;99.90
7204;DHT22;3643;52.460;13.322;2023-07-20T11:53:44;21.10;99.90
7204;DHT22;3643;52.460;13.322;2023-07-20T11:56:14;21.40;99.90
7204;DHT22;3643;52.460;13.322;2023-07-20T11:58:43;21.80;99.90
7204;DHT22;3643;52.460;13.322;2023-07-20T12:01:12;22.20;99.90
7204;DHT22;3643;52.460;13.322;2023-07-20T12:03:42;22.30;99.90
7204;DHT22;3643;52.460;13.322;2023-07-20T12:06:11;22.40;99.90
7204;DHT22;3643;52.460;13.322;2023-07-20T12:08:41;22.40;99.90
7204;DHT22;3643;52.460;13.322;2023-07-20T12:11:10;22.70;99.90
7204;DHT22;3643;52.460;13.322;2023-07-20T12:13:41;23.00;99.90
7204;DHT22;3643;52.460;13.322;2023-07-20T12:16:11;23.00;99.90
7204;DHT22;3643;52.460;13.322;2023-07-20T12:18:40;23.00;99.90
7204;DHT22;3643;52.460;13.322;2023-07-20T12:21:09;22.30;99.90
7204;DHT22;3643;52.460;13.322;2023-07-20T12:23:40;22.20;99.90
7204;DHT22;3643;52.460;13.322;2023-07-20T12:26:09;22.10;99.90
7204;DHT22;3643;52.460;13.322;2023-07-20T12:28:41;21.90;99.90
7204;DHT22;3643;52.460;13.322;2023-07-20T12:31:10;21.90;99.90
7204;DHT22;3643;52.460;13.322;2023-07-20T12:33:40;21.60;99.90
7204;DHT22;3643;52.460;13.322;2023-07-20T12:36:09;21.50;99.90
7204;DHT22;3643;52.460;13.322;2023-07-20T12:38:37;21.70;99.90
7204;DHT22;3643;52.460;13.322;2023-07-20T12:41:09;21.80;99.90
7204;DHT22;3643;52.460;13.322;2023-07-20T12:43:39;22.00;99.90
7204;DHT22;3643;52.460;13.322;2023-07-20T12:46:08;22.10;99.60
7204;DHT22;3643;52.460;13.322;2023-07-20T12:48:37;22.10;99.40
7204;DHT22;3643;52.460;13.322;2023-07-20T12:51:07;22.00;99.20
7204;DHT22;3643;52.460;13.322;2023-07-20T12:53:36;22.00;99.80
7204;DHT22;3643;52.460;13.322;2023-07-20T12:56:04;21.90;99.50
7204;DHT22;3643;52.460;13.322;2023-07-20T12:58:37;21.40;98.70
7204;DHT22;3643;52.460;13.322;2023-07-20T13:01:05;21.50;99.20
7204;DHT22;3643;52.460;13.322;2023-07-20T13:03:34;21.60;98.50
7204;DHT22;3643;52.460;13.322;2023-07-20T13:06:19;21.80;98.60
7204;DHT22;3643;52.460;13.322;2023-07-20T13:08:51;21.80;98.50
7204;DHT22;3643;52.460;13.322;2023-07-20T13:11:22;21.90;97.70
7204;DHT22;3643;52.460;13.322;2023-07-20T13:13:53;21.80;95.20
7204;DHT22;3643;52.460;13.322;2023-07-20T13:16:21;21.80;94.90
7204;DHT22;3643;52.460;13.322;2023-07-20T13:18:50;21.80;94.70
7204;DHT22;3643;52.460;13.322;2023-07-20T13:21:18;21.60;95.00
7204;DHT22;3643;52.460;13.322;2023-07-20T13:23:50;21.50;95.50
7204;DHT22;3643;52.460;13.322;2023-07-20T13:26:19;21.60;95.50
7204;DHT22;3643;52.460;13.322;2023-07-20T13:28:47;21.80;95.50
7204;DHT22;3643;52.460;13.322;2023-07-20T13:31:17;22.00;95.20
7204;DHT22;3643;52.460;13.322;2023-07-20T13:33:45;22.00;94.60
7204;DHT22;3643;52.460;13.322;2023-07-20T13:36:23;22.10;94.90
7204;DHT22;3643;52.460;13.322;2023-07-20T13:38:51;22.00;94.90
7204;DHT22;3643;52.460;13.322;2023-07-20T13:41:20;22.00;94.80
7204;DHT22;3643;52.460;13.322;2023-07-20T13:43:50;22.00;94.80
7204;DHT22;3643;52.460;13.322;2023-07-20T13:46:25;22.10;94.90
7204;DHT22;3643;52.460;13.322;2023-07-20T13:48:56;22.20;94.80
7204;DHT22;3643;52.460;13.322;2023-07-20T13:51:25;22.40;95.30
7204;DHT22;3643;52.460;13.322;2023-07-20T13:53:54;22.50;94.40
7204;DHT22;3643;52.460;13.322;2023-07-20T13:56:23;22.60;94.10
7204;DHT22;3643;52.460;13.322;2023-07-20T13:58:51;22.50;94.10
7204;DHT22;3643;52.460;13.322;2023-07-20T14:01:20;22.20;93.50
7204;DHT22;3643;52.460;13.322;2023-07-20T14:03:55;22.20;93.80
7204;DHT22;3643;52.460;13.322;2023-07-20T14:06:31;22.20;94.10
7204;DHT22;3643;52.460;13.322;2023-07-20T14:09:00;22.30;94.10
7204;DHT22;3643;52.460;13.322;2023-07-20T14:11:28;22.50;94.30
7204;DHT22;3643;52.460;13.322;2023-07-20T14:14:02;22.70;93.80
7204;DHT22;3643;52.460;13.322;2023-07-20T14:16:30;22.70;93.30
7204;DHT22;3643;52.460;13.322;2023-07-20T14:19:01;22.80;93.30
7204;DHT22;3643;52.460;13.322;2023-07-20T14:21:31;22.90;93.70
7204;DHT22;3643;52.460;13.322;2023-07-20T14:24:00;22.80;93.40
7204;DHT22;3643;52.460;13.322;2023-07-20T14:26:29;22.90;93.20
7204;DHT22;3643;52.460;13.322;2023-07-20T14:28:59;23.10;93.30
7204;DHT22;3643;52.460;13.322;2023-07-20T14:31:28;23.10;93.60
7204;DHT22;3643;52.460;13.322;2023-07-20T14:33:58;23.10;92.90
7204;DHT22;3643;52.460;13.322;2023-07-20T14:36:28;23.10;93.00
7204;DHT22;3643;52.460;13.322;2023-07-20T14:39:00;23.20;92.50
7204;DHT22;3643;52.460;13.322;2023-07-20T14:41:28;22.90;92.10
7204;DHT22;3643;52.460;13.322;2023-07-20T14:43:56;23.10;92.50
7204;DHT22;3643;52.460;13.322;2023-07-20T14:46:24;23.30;92.30
7204;DHT22;3643;52.460;13.322;2023-07-20T14:48:53;23.40;92.10
7204;DHT22;3643;52.460;13.322;2023-07-20T14:51:22;23.40;92.30
7204;DHT22;3643;52.460;13.322;2023-07-20T14:53:51;23.40;91.20
7204;DHT22;3643;52.460;13.322;2023-07-20T14:56:19;23.30;91.50
7204;DHT22;3643;52.460;13.322;2023-07-20T14:58:48;23.10;91.10
7204;DHT22;3643;52.460;13.322;2023-07-20T15:01:16;23.10;91.00
7204;DHT22;3643;52.460;13.322;2023-07-20T15:03:45;23.20;90.90
7204;DHT22;3643;52.460;13.322;2023-07-20T15:06:13;23.30;91.40
7204;DHT22;3643;52.460;13.322;2023-07-20T15:08:41;23.50;91.50
7204;DHT22;3643;52.460;13.322;2023-07-20T15:11:11;23.60;91.10
7204;DHT22;3643;52.460;13.322;2023-07-20T15:13:39;22.60;90.70
7204;DHT22;3643;52.460;13.322;2023-07-20T15:16:09;23.60;91.40
7204;DHT22;3643;52.460;13.322;2023-07-20T15:18:38;23.50;91.60
7204;DHT22;3643;52.460;13.322;2023-07-20T15:21:14;23.30;91.20
7204;DHT22;3643;52.460;13.322;2023-07-20T15:23:42;23.30;90.50
7204;DHT22;3643;52.460;13.322;2023-07-20T15:26:12;23.30;90.70
7204;DHT22;3643;52.460;13.322;2023-07-20T15:28:41;23.30;90.40
7204;DHT22;3643;52.460;13.322;2023-07-20T15:31:10;23.10;91.10
7204;DHT22;3643;52.460;13.322;2023-07-20T15:33:38;23.10;90.70
7204;DHT22;3643;52.460;13.322;2023-07-20T15:36:06;23.00;90.50
7204;DHT22;3643;52.460;13.322;2023-07-20T15:38:35;22.90;90.50
7204;DHT22;3643;52.460;13.322;2023-07-20T15:41:03;22.90;91.10
7204;DHT22;3643;52.460;13.322;2023-07-20T15:43:33;23.00;91.50
7204;DHT22;3643;52.460;13.322;2023-07-20T15:46:05;23.20;91.70
7204;DHT22;3643;52.460;13.322;2023-07-20T15:48:46;23.30;91.10
7204;DHT22;3643;52.460;13.322;2023-07-20T15:51:15;23.20;91.00
7204;DHT22;3643;52.460;13.322;2023-07-20T15:53:43;23.10;91.20
7204;DHT22;3643;52.460;13.322;2023-07-20T15:56:14;23.00;91.10
7204;DHT22;3643;52.460;13.322;2023-07-20T15:58:45;23.20;91.30
7204;DHT22;3643;52.460;13.322;2023-07-20T16:01:13;23.20;91.20
7204;DHT22;3643;52.460;13.322;2023-07-20T16:03:41;23.00;90.80